createdAt,value
2018-03-16T00:00:14.443Z,987.69
2018-03-16T00:01:14.414Z,987.71
2018-03-16T00:02:14.389Z,987.68
2018-03-16T00:03:14.359Z,987.75
2018-03-16T00:04:14.331Z,987.74
2018-03-16T00:05:14.304Z,987.74
2018-03-16T00:06:14.276Z,987.74
2018-03-16T00:07:14.250Z,987.73
2018-03-16T00:08:14.220Z,987.72
2018-03-16T00:09:14.192Z,987.74
2018-03-16T00:10:14.163Z,987.77
2018-03-16T00:11:14.135Z,987.78
2018-03-16T00:12:14.124Z,987.78
2018-03-16T00:13:14.080Z,987.79
2018-03-16T00:14:14.052Z,987.79
2018-03-16T00:15:14.024Z,987.78
2018-03-16T00:16:13.996Z,987.78
2018-03-16T00:17:13.968Z,987.8
2018-03-16T00:18:13.939Z,987.82
2018-03-16T00:19:13.912Z,987.83
2018-03-16T00:20:13.888Z,987.87
2018-03-16T00:21:13.856Z,987.85
2018-03-16T00:22:13.828Z,987.86
2018-03-16T00:23:13.799Z,987.9
2018-03-16T00:24:13.777Z,987.89
2018-03-16T00:25:13.743Z,987.88
2018-03-16T00:26:13.714Z,987.91
2018-03-16T00:27:13.687Z,987.95
2018-03-16T00:28:13.661Z,988.02
2018-03-16T00:29:13.632Z,988.03
2018-03-16T00:30:13.622Z,988.05
2018-03-16T00:31:13.588Z,988.06
2018-03-16T00:32:13.548Z,988.03
2018-03-16T00:33:13.644Z,988.03
2018-03-16T00:34:13.490Z,988.02
2018-03-16T00:35:13.521Z,988.04
2018-03-16T00:36:13.436Z,988.05
2018-03-16T00:37:13.407Z,988.02
2018-03-16T00:38:13.379Z,988.06
2018-03-16T00:39:13.351Z,988.05
2018-03-16T00:40:13.325Z,988.1
2018-03-16T00:41:13.295Z,988.07
2018-03-16T00:42:13.267Z,988.07
2018-03-16T00:43:13.240Z,988.08
2018-03-16T00:44:13.211Z,988.07
2018-03-16T00:45:13.184Z,988.1
2018-03-16T00:46:13.156Z,988.1
2018-03-16T00:47:13.127Z,988.11
2018-03-16T00:48:13.100Z,988.09
2018-03-16T00:49:13.073Z,988.05
2018-03-16T00:50:13.045Z,988.03
2018-03-16T00:51:13.016Z,988.1
2018-03-16T00:52:12.989Z,988.09
2018-03-16T00:53:12.968Z,988.05
2018-03-16T00:54:12.934Z,988.07
2018-03-16T00:55:12.904Z,988.04
2018-03-16T00:56:12.880Z,988.04
2018-03-16T00:57:12.849Z,988.07
2018-03-16T00:58:12.823Z,988.05
2018-03-16T00:59:12.792Z,988.09
2018-03-16T01:00:12.766Z,988.09
2018-03-16T01:01:12.738Z,988.1
2018-03-16T01:02:12.709Z,988.13
2018-03-16T01:03:12.682Z,988.08
2018-03-16T01:04:12.654Z,988.09
2018-03-16T01:05:12.626Z,988.12
2018-03-16T01:06:12.597Z,988.11
2018-03-16T01:07:12.569Z,988.11
2018-03-16T01:08:12.541Z,988.1
2018-03-16T01:09:12.512Z,988.14
2018-03-16T01:10:12.486Z,988.11
2018-03-16T01:11:12.457Z,988.15
2018-03-16T01:12:12.429Z,988.14
2018-03-16T01:13:12.401Z,988.13
2018-03-16T01:14:12.373Z,988.16
2018-03-16T01:15:12.345Z,988.06
2018-03-16T01:16:12.317Z,988.1
2018-03-16T01:17:12.288Z,988.04
2018-03-16T01:18:12.261Z,988.08
2018-03-16T01:19:12.233Z,988.08
2018-03-16T01:20:12.203Z,988.07
2018-03-16T01:21:12.175Z,988.03
2018-03-16T01:22:12.148Z,988.03
2018-03-16T01:23:12.120Z,987.96
2018-03-16T01:24:12.092Z,987.97
2018-03-16T01:25:12.065Z,987.97
2018-03-16T01:26:12.036Z,988
2018-03-16T01:27:12.008Z,987.96
2018-03-16T01:28:11.978Z,987.98
2018-03-16T01:29:11.951Z,987.91
2018-03-16T01:30:11.923Z,987.89
2018-03-16T01:31:11.895Z,987.89
2018-03-16T01:32:11.867Z,987.93
2018-03-16T01:33:11.839Z,987.91
2018-03-16T01:34:11.811Z,987.96
2018-03-16T01:35:11.786Z,987.9
2018-03-16T01:36:11.755Z,987.9
2018-03-16T01:37:11.730Z,987.9
2018-03-16T01:38:11.699Z,987.89
2018-03-16T01:39:11.670Z,987.89
2018-03-16T01:40:11.642Z,987.91
2018-03-16T01:41:11.614Z,987.9
2018-03-16T01:42:11.584Z,987.9
2018-03-16T01:43:11.557Z,987.88
2018-03-16T01:44:11.529Z,987.91
2018-03-16T01:45:11.501Z,987.9
2018-03-16T01:46:11.471Z,987.94
2018-03-16T01:47:11.444Z,987.96
2018-03-16T01:48:11.417Z,987.97
2018-03-16T01:49:11.390Z,987.99
2018-03-16T01:50:11.361Z,987.95
2018-03-16T01:51:11.350Z,987.99
2018-03-16T01:52:11.303Z,987.97
2018-03-16T01:53:11.275Z,987.96
2018-03-16T01:54:11.247Z,987.9
2018-03-16T01:55:11.219Z,987.95
2018-03-16T01:56:11.189Z,987.93
2018-03-16T01:57:11.162Z,987.97
2018-03-16T01:58:11.133Z,987.98
2018-03-16T01:59:11.105Z,987.96
2018-03-16T02:00:11.078Z,988
2018-03-16T02:01:11.049Z,988.02
2018-03-16T02:02:11.020Z,988.05
2018-03-16T02:03:10.991Z,988.02
2018-03-16T02:04:10.963Z,987.98
2018-03-16T02:05:10.935Z,988.02
2018-03-16T02:06:10.906Z,988.04
2018-03-16T02:07:10.879Z,988.05
2018-03-16T02:08:10.850Z,988.07
2018-03-16T02:09:10.821Z,988.07
2018-03-16T02:10:10.794Z,988.1
2018-03-16T02:11:10.766Z,988.12
2018-03-16T02:12:10.737Z,988.08
2018-03-16T02:13:10.708Z,988.1
2018-03-16T02:14:10.680Z,988.08
2018-03-16T02:15:10.654Z,988.07
2018-03-16T02:16:10.625Z,988.06
2018-03-16T02:17:10.598Z,988.01
2018-03-16T02:18:10.568Z,988.04
2018-03-16T02:19:10.538Z,988.03
2018-03-16T02:20:10.514Z,988.05
2018-03-16T02:21:10.485Z,987.97
2018-03-16T02:22:10.454Z,988.02
2018-03-16T02:23:10.426Z,988
2018-03-16T02:24:10.398Z,988.02
2018-03-16T02:25:10.370Z,988.03
2018-03-16T02:26:10.340Z,988.07
2018-03-16T02:27:10.313Z,988.07
2018-03-16T02:28:10.285Z,988.09
2018-03-16T02:29:10.257Z,988.03
2018-03-16T02:30:10.229Z,988.06
2018-03-16T02:31:10.202Z,988.09
2018-03-16T02:32:10.171Z,988.07
2018-03-16T02:33:10.141Z,988.09
2018-03-16T02:34:10.115Z,988.05
2018-03-16T02:35:10.087Z,988.05
2018-03-16T02:36:10.058Z,988.09
2018-03-16T02:37:10.031Z,988.07
2018-03-16T02:38:10.002Z,988.09
2018-03-16T02:39:09.974Z,988.12
2018-03-16T02:40:09.944Z,988.15
2018-03-16T02:41:09.916Z,988.14
2018-03-16T02:42:09.889Z,988.14
2018-03-16T02:43:09.860Z,988.11
2018-03-16T02:44:09.830Z,988.15
2018-03-16T02:45:09.806Z,988.14
2018-03-16T02:46:09.775Z,988.15
2018-03-16T02:47:09.746Z,988.13
2018-03-16T02:48:09.717Z,988.14
2018-03-16T02:49:09.690Z,988.13
2018-03-16T02:50:09.660Z,988.12
2018-03-16T02:51:09.632Z,988.09
2018-03-16T02:52:09.604Z,988.11
2018-03-16T02:53:09.576Z,988.1
2018-03-16T02:54:09.547Z,988.07
2018-03-16T02:55:09.519Z,988.13
2018-03-16T02:56:09.492Z,988.13
2018-03-16T02:57:09.462Z,988.12
2018-03-16T02:58:09.434Z,988.11
2018-03-16T02:59:09.406Z,988.11
2018-03-16T03:00:09.377Z,988.11
2018-03-16T03:01:09.350Z,988.15
2018-03-16T03:02:09.329Z,988.11
2018-03-16T03:03:09.293Z,988.12
2018-03-16T03:04:09.266Z,988.14
2018-03-16T03:05:09.236Z,988.12
2018-03-16T03:06:09.207Z,988.12
2018-03-16T03:07:09.177Z,988.11
2018-03-16T03:08:09.149Z,988.09
2018-03-16T03:09:09.122Z,988.15
2018-03-16T03:10:09.092Z,988.16
2018-03-16T03:11:09.065Z,988.14
2018-03-16T03:12:09.038Z,988.13
2018-03-16T03:13:09.008Z,988.16
2018-03-16T03:14:08.980Z,988.11
2018-03-16T03:15:08.951Z,988.15
2018-03-16T03:16:08.924Z,988.16
2018-03-16T03:17:08.896Z,988.14
2018-03-16T03:18:08.865Z,988.14
2018-03-16T03:19:08.838Z,988.12
2018-03-16T03:20:08.810Z,988.16
2018-03-16T03:21:08.781Z,988.19
2018-03-16T03:22:08.753Z,988.16
2018-03-16T03:23:08.724Z,988.16
2018-03-16T03:24:08.697Z,988.21
2018-03-16T03:25:08.667Z,988.18
2018-03-16T03:26:08.639Z,988.22
2018-03-16T03:27:08.611Z,988.23
2018-03-16T03:28:08.582Z,988.26
2018-03-16T03:29:08.553Z,988.22
2018-03-16T03:30:08.525Z,988.2
2018-03-16T03:31:08.499Z,988.27
2018-03-16T03:32:08.467Z,988.32
2018-03-16T03:33:08.439Z,988.28
2018-03-16T03:34:08.412Z,988.33
2018-03-16T03:35:08.383Z,988.29
2018-03-16T03:36:08.354Z,988.33
2018-03-16T03:37:08.327Z,988.35
2018-03-16T03:38:08.298Z,988.38
2018-03-16T03:39:08.270Z,988.36
2018-03-16T03:40:08.240Z,988.41
2018-03-16T03:41:08.212Z,988.38
2018-03-16T03:42:08.185Z,988.41
2018-03-16T03:43:08.155Z,988.4
2018-03-16T03:44:08.127Z,988.38
2018-03-16T03:45:08.097Z,988.39
2018-03-16T03:46:08.071Z,988.35
2018-03-16T03:47:08.042Z,988.35
2018-03-16T03:48:08.014Z,988.4
2018-03-16T03:49:07.990Z,988.44
2018-03-16T03:50:07.955Z,988.41
2018-03-16T03:51:07.928Z,988.42
2018-03-16T03:52:07.904Z,988.43
2018-03-16T03:53:07.872Z,988.38
2018-03-16T03:54:07.843Z,988.38
2018-03-16T03:55:07.814Z,988.37
2018-03-16T03:56:07.785Z,988.36
2018-03-16T03:57:07.758Z,988.35
2018-03-16T03:58:07.730Z,988.38
2018-03-16T03:59:07.702Z,988.39
2018-03-16T04:00:07.673Z,988.4
2018-03-16T04:01:07.644Z,988.4
2018-03-16T04:02:07.615Z,988.39
2018-03-16T04:03:07.587Z,988.39
2018-03-16T04:04:07.560Z,988.43
2018-03-16T04:05:07.533Z,988.42
2018-03-16T04:06:07.502Z,988.39
2018-03-16T04:07:07.474Z,988.43
2018-03-16T04:08:07.453Z,988.47
2018-03-16T04:09:07.417Z,988.45
2018-03-16T04:10:07.393Z,988.46
2018-03-16T04:11:07.360Z,988.47
2018-03-16T04:12:07.331Z,988.5
2018-03-16T04:13:07.302Z,988.46
2018-03-16T04:14:07.274Z,988.51
2018-03-16T04:15:07.247Z,988.5
2018-03-16T04:16:07.216Z,988.49
2018-03-16T04:17:07.188Z,988.55
2018-03-16T04:18:07.158Z,988.53
2018-03-16T04:19:07.130Z,988.54
2018-03-16T04:20:07.103Z,988.55
2018-03-16T04:21:07.074Z,988.56
2018-03-16T04:22:07.046Z,988.53
2018-03-16T04:23:07.017Z,988.54
2018-03-16T04:24:06.989Z,988.56
2018-03-16T04:25:06.960Z,988.6
2018-03-16T04:26:06.931Z,988.62
2018-03-16T04:27:06.904Z,988.6
2018-03-16T04:28:06.875Z,988.66
2018-03-16T04:29:06.847Z,988.66
2018-03-16T04:30:06.816Z,988.64
2018-03-16T04:31:06.854Z,988.67
2018-03-16T04:32:06.760Z,988.69
2018-03-16T04:33:06.732Z,988.63
2018-03-16T04:34:06.702Z,988.66
2018-03-16T04:35:06.673Z,988.68
2018-03-16T04:36:06.645Z,988.71
2018-03-16T04:37:06.617Z,988.67
2018-03-16T04:38:06.588Z,988.66
2018-03-16T04:39:06.561Z,988.63
2018-03-16T04:40:06.531Z,988.65
2018-03-16T04:41:06.503Z,988.7
2018-03-16T04:42:06.474Z,988.62
2018-03-16T04:43:06.446Z,988.65
2018-03-16T04:44:06.417Z,988.62
2018-03-16T04:45:06.388Z,988.69
2018-03-16T04:46:06.360Z,988.72
2018-03-16T04:47:06.330Z,988.71
2018-03-16T04:48:06.303Z,988.74
2018-03-16T04:49:06.273Z,988.72
2018-03-16T04:50:06.246Z,988.72
2018-03-16T04:51:06.218Z,988.75
2018-03-16T04:52:06.192Z,988.8
2018-03-16T04:53:06.158Z,988.78
2018-03-16T04:54:06.130Z,988.8
2018-03-16T04:55:06.104Z,988.8
2018-03-16T04:56:06.072Z,988.81
2018-03-16T04:57:06.044Z,988.81
2018-03-16T04:58:06.016Z,988.83
2018-03-16T04:59:05.988Z,988.85
2018-03-16T05:00:05.958Z,988.85
2018-03-16T05:01:05.932Z,988.84
2018-03-16T05:02:05.902Z,988.87
2018-03-16T05:03:05.873Z,988.87
2018-03-16T05:04:05.846Z,988.89
2018-03-16T05:05:05.817Z,988.89
2018-03-16T05:06:05.787Z,988.87
2018-03-16T05:07:05.759Z,988.86
2018-03-16T05:08:05.729Z,988.93
2018-03-16T05:09:05.701Z,988.87
2018-03-16T05:10:05.674Z,988.87
2018-03-16T05:11:05.644Z,988.9
2018-03-16T05:12:05.616Z,988.92
2018-03-16T05:13:05.587Z,988.91
2018-03-16T05:14:05.557Z,988.9
2018-03-16T05:15:05.529Z,988.93
2018-03-16T05:16:05.500Z,988.97
2018-03-16T05:17:05.471Z,988.94
2018-03-16T05:18:05.443Z,988.96
2018-03-16T05:19:05.415Z,988.92
2018-03-16T05:20:05.386Z,989
2018-03-16T05:21:05.356Z,988.92
2018-03-16T05:22:05.331Z,988.99
2018-03-16T05:23:05.299Z,988.94
2018-03-16T05:24:05.271Z,989.02
2018-03-16T05:25:05.242Z,988.98
2018-03-16T05:26:05.215Z,989.01
2018-03-16T05:27:05.184Z,989.04
2018-03-16T05:28:05.156Z,989.04
2018-03-16T05:29:05.127Z,989
2018-03-16T05:30:05.146Z,989.06
2018-03-16T05:31:05.069Z,989.07
2018-03-16T05:32:05.042Z,989.07
2018-03-16T05:33:05.016Z,989.11
2018-03-16T05:34:04.983Z,989.09
2018-03-16T05:35:04.956Z,989.09
2018-03-16T05:36:04.929Z,989.15
2018-03-16T05:37:04.897Z,989.15
2018-03-16T05:38:04.874Z,989.17
2018-03-16T05:39:04.841Z,989.17
2018-03-16T05:40:04.810Z,989.21
2018-03-16T05:41:04.785Z,989.18
2018-03-16T05:42:04.754Z,989.17
2018-03-16T05:43:04.846Z,989.25
2018-03-16T05:44:04.960Z,989.23
2018-03-16T05:45:04.666Z,989.22
2018-03-16T05:46:04.732Z,989.24
2018-03-16T05:47:04.608Z,989.24
2018-03-16T05:48:04.580Z,989.23
2018-03-16T05:49:04.587Z,989.2
2018-03-16T05:50:04.524Z,989.23
2018-03-16T05:51:04.512Z,989.23
2018-03-16T05:52:04.465Z,989.23
2018-03-16T05:53:04.436Z,989.28
2018-03-16T05:54:04.407Z,989.28
2018-03-16T05:55:04.379Z,989.29
2018-03-16T05:56:04.349Z,989.33
2018-03-16T05:57:04.320Z,989.31
2018-03-16T05:58:04.292Z,989.34
2018-03-16T05:59:04.263Z,989.43
2018-03-16T06:00:04.235Z,989.39
2018-03-16T06:01:04.206Z,989.42
2018-03-16T06:02:04.176Z,989.41
2018-03-16T06:03:04.148Z,989.44
2018-03-16T06:04:04.119Z,989.43
2018-03-16T06:05:04.089Z,989.44
2018-03-16T06:06:04.060Z,989.44
2018-03-16T06:07:04.033Z,989.42
2018-03-16T06:08:04.004Z,989.46
2018-03-16T06:09:03.973Z,989.42
2018-03-16T06:10:03.945Z,989.44
2018-03-16T06:11:03.918Z,989.44
2018-03-16T06:12:03.887Z,989.43
2018-03-16T06:13:03.860Z,989.47
2018-03-16T06:14:04.048Z,989.46
2018-03-16T06:15:03.802Z,989.44
2018-03-16T06:16:03.979Z,989.49
2018-03-16T06:17:03.744Z,989.47
2018-03-16T06:18:03.715Z,989.52
2018-03-16T06:19:03.686Z,989.5
2018-03-16T06:20:03.657Z,989.55
2018-03-16T06:21:03.628Z,989.51
2018-03-16T06:22:03.599Z,989.49
2018-03-16T06:23:03.570Z,989.56
2018-03-16T06:24:03.541Z,989.56
2018-03-16T06:25:03.513Z,989.54
2018-03-16T06:26:03.483Z,989.59
2018-03-16T06:27:03.455Z,989.6
2018-03-16T06:28:03.426Z,989.58
2018-03-16T06:29:03.498Z,989.6
2018-03-16T06:30:03.369Z,989.64
2018-03-16T06:31:03.338Z,989.65
2018-03-16T06:32:03.313Z,989.62
2018-03-16T06:33:03.282Z,989.67
2018-03-16T06:34:03.252Z,989.59
2018-03-16T06:35:03.224Z,989.69
2018-03-16T06:36:03.194Z,989.7
2018-03-16T06:37:03.168Z,989.68
2018-03-16T06:38:03.233Z,989.71
2018-03-16T06:39:03.108Z,989.72
2018-03-16T06:40:03.079Z,989.77
2018-03-16T06:41:03.052Z,989.81
2018-03-16T06:42:03.021Z,989.77
2018-03-16T06:43:02.994Z,989.8
2018-03-16T06:44:02.964Z,989.79
2018-03-16T06:45:03.057Z,989.8
2018-03-16T06:46:02.907Z,989.82
2018-03-16T06:47:02.879Z,989.8
2018-03-16T06:48:02.850Z,989.81
2018-03-16T06:49:02.830Z,989.84
2018-03-16T06:50:02.795Z,989.83
2018-03-16T06:51:02.764Z,989.86
2018-03-16T06:52:02.738Z,989.86
2018-03-16T06:53:02.706Z,989.86
2018-03-16T06:54:02.687Z,989.89
2018-03-16T06:55:02.649Z,989.93
2018-03-16T06:56:02.621Z,989.95
2018-03-16T06:57:02.591Z,989.96
2018-03-16T06:58:02.563Z,989.99
2018-03-16T06:59:02.535Z,989.98
2018-03-16T07:00:02.505Z,989.98
2018-03-16T07:01:02.477Z,989.99
2018-03-16T07:02:02.448Z,989.99
2018-03-16T07:03:02.419Z,989.99
2018-03-16T07:04:02.390Z,990.05
2018-03-16T07:05:02.365Z,990.01
2018-03-16T07:06:02.334Z,990.05
2018-03-16T07:07:02.306Z,990.06
2018-03-16T07:08:02.278Z,990.1
2018-03-16T07:09:02.248Z,990.09
2018-03-16T07:10:02.221Z,990.11
2018-03-16T07:11:02.190Z,990.05
2018-03-16T07:12:02.164Z,990.11
2018-03-16T07:13:02.137Z,990.12
2018-03-16T07:14:02.105Z,990.14
2018-03-16T07:15:02.076Z,990.15
2018-03-16T07:16:02.047Z,990.18
2018-03-16T07:17:02.019Z,990.13
2018-03-16T07:18:02.089Z,990.16
2018-03-16T07:19:01.960Z,990.14
2018-03-16T07:20:01.932Z,990.15
2018-03-16T07:21:01.904Z,990.18
2018-03-16T07:22:01.880Z,990.14
2018-03-16T07:23:01.846Z,990.19
2018-03-16T07:24:01.817Z,990.17
2018-03-16T07:25:01.873Z,990.22
2018-03-16T07:26:01.909Z,990.23
2018-03-16T07:27:01.810Z,990.23
2018-03-16T07:28:01.718Z,990.2
2018-03-16T07:29:01.674Z,990.22
2018-03-16T07:30:01.645Z,990.27
2018-03-16T07:31:01.620Z,990.25
2018-03-16T07:32:01.588Z,990.28
2018-03-16T07:33:01.559Z,990.3
2018-03-16T07:34:01.533Z,990.33
2018-03-16T07:35:01.505Z,990.32
2018-03-16T07:36:01.474Z,990.32
2018-03-16T07:37:01.445Z,990.35
2018-03-16T07:38:01.420Z,990.37
2018-03-16T07:39:01.387Z,990.33
2018-03-16T07:40:01.358Z,990.43
2018-03-16T07:41:01.336Z,990.46
2018-03-16T07:42:01.300Z,990.48
2018-03-16T07:43:01.275Z,990.48
2018-03-16T07:44:01.244Z,990.54
2018-03-16T07:45:01.216Z,990.57
2018-03-16T07:46:01.287Z,990.59
2018-03-16T07:47:01.302Z,990.56
2018-03-16T07:48:01.367Z,990.55
2018-03-16T07:49:01.108Z,990.54
2018-03-16T07:50:01.071Z,990.56
2018-03-16T07:51:01.042Z,990.63
2018-03-16T07:52:01.014Z,990.6
2018-03-16T07:53:00.987Z,990.64
2018-03-16T07:54:00.958Z,990.64
2018-03-16T07:55:00.928Z,990.66
2018-03-16T07:56:00.936Z,990.66
2018-03-16T07:57:00.875Z,990.66
2018-03-16T07:58:00.843Z,990.71
2018-03-16T07:59:00.812Z,990.72
2018-03-16T08:00:01.122Z,990.7
2018-03-16T08:01:00.758Z,990.75
2018-03-16T08:02:00.726Z,990.74
2018-03-16T08:03:00.699Z,990.73
2018-03-16T08:04:00.670Z,990.74
2018-03-16T08:05:00.641Z,990.81
2018-03-16T08:06:00.612Z,990.84
2018-03-16T08:07:00.684Z,990.79
2018-03-16T08:08:00.555Z,990.82
2018-03-16T08:09:00.526Z,990.88
2018-03-16T08:10:00.496Z,990.86
2018-03-16T08:11:00.550Z,990.91
2018-03-16T08:12:00.592Z,990.91
2018-03-16T08:13:00.435Z,990.9
2018-03-16T08:14:00.382Z,990.99
2018-03-16T08:15:00.457Z,990.96
2018-03-16T08:16:00.326Z,990.91
2018-03-16T08:17:00.296Z,990.93
2018-03-16T08:18:00.268Z,990.92
2018-03-16T08:19:00.257Z,990.93
2018-03-16T08:20:00.211Z,990.93
2018-03-16T08:21:00.181Z,990.96
2018-03-16T08:22:00.154Z,990.97
2018-03-16T08:23:00.296Z,990.96
2018-03-16T08:24:00.241Z,990.99
2018-03-16T08:25:00.068Z,991
2018-03-16T08:26:00.039Z,990.97
2018-03-16T08:27:00.013Z,991.03
2018-03-16T08:28:00.052Z,991.03
2018-03-16T08:28:59.953Z,990.95
2018-03-16T08:29:59.925Z,991.01
2018-03-16T08:31:00.465Z,991
2018-03-16T08:31:59.868Z,991.07
2018-03-16T08:32:59.839Z,991.04
2018-03-16T08:33:59.863Z,991.03
2018-03-16T08:34:59.783Z,991.03
2018-03-16T08:35:59.755Z,991.06
2018-03-16T08:36:59.726Z,991.04
2018-03-16T08:37:59.699Z,991.01
2018-03-16T08:38:59.669Z,991.07
2018-03-16T08:39:59.642Z,991.03
2018-03-16T08:40:59.614Z,991.09
2018-03-16T08:41:59.586Z,991.09
2018-03-16T08:42:59.564Z,991.07
2018-03-16T08:43:59.531Z,991.09
2018-03-16T08:44:59.503Z,991.12
2018-03-16T08:45:59.554Z,991.11
2018-03-16T08:46:59.445Z,991.1
2018-03-16T08:47:59.418Z,991.1
2018-03-16T08:48:59.390Z,991.1
2018-03-16T08:49:59.362Z,991.08
2018-03-16T08:50:59.335Z,991.08
2018-03-16T08:51:59.306Z,991.06
2018-03-16T08:52:59.277Z,991.14
2018-03-16T08:53:59.249Z,991.14
2018-03-16T08:54:59.222Z,991.18
2018-03-16T08:55:59.195Z,991.13
2018-03-16T08:56:59.166Z,991.12
2018-03-16T08:57:59.139Z,991.12
2018-03-16T08:58:59.111Z,991.14
2018-03-16T08:59:59.084Z,991.12
2018-03-16T09:00:59.180Z,991.18
2018-03-16T09:01:59.028Z,991.13
2018-03-16T09:02:59.001Z,991.18
2018-03-16T09:03:58.972Z,991.22
2018-03-16T09:04:58.951Z,991.15
2018-03-16T09:05:58.917Z,991.16
2018-03-16T09:06:58.890Z,991.17
2018-03-16T09:07:58.861Z,991.18
2018-03-16T09:08:58.834Z,991.2
2018-03-16T09:09:58.806Z,991.17
2018-03-16T09:10:58.779Z,991.18
2018-03-16T09:11:58.750Z,991.15
2018-03-16T09:12:59.076Z,991.18
2018-03-16T09:13:58.696Z,991.18
2018-03-16T09:14:58.669Z,991.15
2018-03-16T09:15:58.640Z,991.14
2018-03-16T09:16:58.613Z,991.18
2018-03-16T09:17:58.587Z,991.18
2018-03-16T09:18:58.558Z,991.31
2018-03-16T09:19:58.531Z,991.22
2018-03-16T09:20:58.504Z,991.24
2018-03-16T09:21:58.476Z,991.26
2018-03-16T09:22:58.448Z,991.22
2018-03-16T09:23:58.421Z,991.29
2018-03-16T09:24:58.393Z,991.29
2018-03-16T09:25:58.364Z,991.27
2018-03-16T09:26:58.338Z,991.28
2018-03-16T09:27:58.311Z,991.25
2018-03-16T09:28:58.284Z,991.25
2018-03-16T09:29:58.256Z,991.24
2018-03-16T09:30:58.228Z,991.26
2018-03-16T09:31:58.204Z,991.27
2018-03-16T09:32:58.178Z,991.29
2018-03-16T09:33:58.147Z,991.3
2018-03-16T09:34:58.120Z,991.34
2018-03-16T09:35:58.094Z,991.36
2018-03-16T09:36:58.069Z,991.29
2018-03-16T09:37:58.040Z,991.3
2018-03-16T09:38:58.016Z,991.34
2018-03-16T09:39:57.983Z,991.33
2018-03-16T09:40:57.960Z,991.35
2018-03-16T09:41:57.930Z,991.35
2018-03-16T09:42:57.904Z,991.36
2018-03-16T09:43:57.876Z,991.33
2018-03-16T09:44:57.847Z,991.38
2018-03-16T09:45:57.820Z,991.34
2018-03-16T09:46:57.795Z,991.38
2018-03-16T09:47:57.767Z,991.41
2018-03-16T09:48:57.838Z,991.37
2018-03-16T09:49:57.714Z,991.4
2018-03-16T09:50:57.686Z,991.42
2018-03-16T09:51:57.658Z,991.45
2018-03-16T09:52:57.632Z,991.45
2018-03-16T09:53:57.605Z,991.45
2018-03-16T09:54:57.580Z,991.41
2018-03-16T09:55:57.897Z,991.43
2018-03-16T09:56:57.533Z,991.42
2018-03-16T09:57:57.497Z,991.44
2018-03-16T09:58:57.470Z,991.42
2018-03-16T09:59:57.444Z,991.4
2018-03-16T10:00:57.418Z,991.39
2018-03-16T10:01:57.391Z,991.39
2018-03-16T10:02:57.452Z,991.39
2018-03-16T10:03:57.339Z,991.38
2018-03-16T10:04:57.312Z,991.37
2018-03-16T10:05:57.286Z,991.38
2018-03-16T10:06:57.259Z,991.39
2018-03-16T10:07:57.232Z,991.33
2018-03-16T10:08:57.205Z,991.41
2018-03-16T10:09:57.179Z,991.46
2018-03-16T10:10:57.154Z,991.4
2018-03-16T10:11:57.126Z,991.48
2018-03-16T10:12:57.102Z,991.45
2018-03-16T10:13:57.125Z,991.4
2018-03-16T10:14:57.047Z,991.43
2018-03-16T10:15:57.022Z,991.38
2018-03-16T10:16:56.995Z,991.4
2018-03-16T10:17:56.970Z,991.37
2018-03-16T10:18:56.944Z,991.38
2018-03-16T10:19:56.918Z,991.39
2018-03-16T10:20:56.892Z,991.38
2018-03-16T10:21:56.866Z,991.4
2018-03-16T10:22:56.840Z,991.43
2018-03-16T10:23:56.815Z,991.38
2018-03-16T10:24:56.787Z,991.43
2018-03-16T10:25:56.761Z,991.37
2018-03-16T10:26:56.736Z,991.45
2018-03-16T10:27:56.712Z,991.45
2018-03-16T10:28:56.688Z,991.41
2018-03-16T10:29:56.660Z,991.4
2018-03-16T10:30:56.635Z,991.38
2018-03-16T10:31:56.608Z,991.38
2018-03-16T10:32:56.585Z,991.39
2018-03-16T10:33:56.558Z,991.37
2018-03-16T10:34:56.534Z,991.42
2018-03-16T10:35:56.511Z,991.37
2018-03-16T10:36:56.483Z,991.39
2018-03-16T10:37:56.457Z,991.44
2018-03-16T10:38:56.432Z,991.49
2018-03-16T10:39:56.407Z,991.47
2018-03-16T10:40:56.382Z,991.54
2018-03-16T10:41:56.358Z,991.54
2018-03-16T10:42:56.337Z,991.56
2018-03-16T10:43:56.309Z,991.61
2018-03-16T10:44:56.285Z,991.67
2018-03-16T10:45:56.261Z,991.72
2018-03-16T10:46:56.236Z,991.72
2018-03-16T10:47:56.212Z,991.69
2018-03-16T10:48:56.259Z,991.76
2018-03-16T10:49:56.161Z,991.78
2018-03-16T10:50:56.137Z,991.82
2018-03-16T10:51:56.112Z,991.85
2018-03-16T10:52:56.092Z,991.81
2018-03-16T10:53:56.063Z,991.86
2018-03-16T10:54:56.038Z,991.88
2018-03-16T10:55:56.226Z,991.85
2018-03-16T10:56:55.996Z,991.89
2018-03-16T10:57:55.964Z,991.95
2018-03-16T10:58:55.938Z,991.99
2018-03-16T10:59:55.913Z,992.01
2018-03-16T11:00:55.887Z,991.98
2018-03-16T11:01:55.862Z,991.99
2018-03-16T11:02:55.938Z,992.01
2018-03-16T11:03:55.813Z,992
2018-03-16T11:04:55.786Z,991.99
2018-03-16T11:05:55.761Z,992.04
2018-03-16T11:06:55.736Z,992.01
2018-03-16T11:07:55.712Z,991.96
2018-03-16T11:08:55.684Z,992.06
2018-03-16T11:09:55.660Z,992.05
2018-03-16T11:10:55.638Z,992.02
2018-03-16T11:11:55.607Z,992.05
2018-03-16T11:12:55.583Z,992.02
2018-03-16T11:13:55.558Z,992.08
2018-03-16T11:14:55.532Z,992.04
2018-03-16T11:15:55.507Z,992.06
2018-03-16T11:16:55.481Z,992.05
2018-03-16T11:17:55.456Z,992.08
2018-03-16T11:18:55.430Z,992.12
2018-03-16T11:19:55.403Z,992.12
2018-03-16T11:20:55.378Z,992.09
2018-03-16T11:21:55.353Z,992.12
2018-03-16T11:22:55.326Z,992.15
2018-03-16T11:23:55.301Z,992.16
2018-03-16T11:24:55.287Z,992.11
2018-03-16T11:25:55.277Z,992.16
2018-03-16T11:26:55.614Z,992.19
2018-03-16T11:27:55.360Z,992.19
2018-03-16T11:28:55.268Z,992.14
2018-03-16T11:29:55.445Z,992.18
2018-03-16T11:30:55.184Z,992.23
2018-03-16T11:31:55.215Z,992.25
2018-03-16T11:32:55.107Z,992.19
2018-03-16T11:33:55.040Z,992.22
2018-03-16T11:34:55.015Z,992.21
2018-03-16T11:35:54.988Z,992.1
2018-03-16T11:36:54.962Z,992.21
2018-03-16T11:37:54.935Z,992.2
2018-03-16T11:38:54.909Z,992.23
2018-03-16T11:39:54.882Z,992.14
2018-03-16T11:40:54.859Z,992.18
2018-03-16T11:41:54.831Z,992.18
2018-03-16T11:42:54.803Z,992.16
2018-03-16T11:43:54.787Z,992.15
2018-03-16T11:44:54.750Z,992.16
2018-03-16T11:45:54.726Z,992.15
2018-03-16T11:46:54.707Z,992.15
2018-03-16T11:47:54.703Z,992.2
2018-03-16T11:48:54.936Z,992.15
2018-03-16T11:49:54.815Z,992.19
2018-03-16T11:50:54.598Z,992.12
2018-03-16T11:51:54.570Z,992.24
2018-03-16T11:52:54.543Z,992.18
2018-03-16T11:53:54.517Z,992.22
2018-03-16T11:54:54.492Z,992.25
2018-03-16T11:55:54.465Z,992.25
2018-03-16T11:56:54.440Z,992.28
2018-03-16T11:57:54.414Z,992.3
2018-03-16T11:58:54.388Z,992.31
2018-03-16T11:59:54.361Z,992.3
2018-03-16T12:00:54.365Z,992.31
2018-03-16T12:01:54.310Z,992.32
2018-03-16T12:02:54.281Z,992.32
2018-03-16T12:03:54.256Z,992.33
2018-03-16T12:04:54.231Z,992.34
2018-03-16T12:05:54.206Z,992.39
2018-03-16T12:06:54.181Z,992.35
2018-03-16T12:07:54.156Z,992.38
2018-03-16T12:08:54.127Z,992.38
2018-03-16T12:09:54.156Z,992.43
2018-03-16T12:10:54.075Z,992.44
2018-03-16T12:11:54.162Z,992.44
2018-03-16T12:12:54.024Z,992.41
2018-03-16T12:13:53.996Z,992.39
2018-03-16T12:14:54.254Z,992.45
2018-03-16T12:15:53.946Z,992.43
2018-03-16T12:16:53.951Z,992.47
2018-03-16T12:17:53.892Z,992.5
2018-03-16T12:18:53.866Z,992.5
2018-03-16T12:19:53.840Z,992.49
2018-03-16T12:20:53.814Z,992.46
2018-03-16T12:21:53.789Z,992.46
2018-03-16T12:22:53.762Z,992.44
2018-03-16T12:23:53.738Z,992.41
2018-03-16T12:24:53.709Z,992.45
2018-03-16T12:25:53.714Z,992.46
2018-03-16T12:26:53.657Z,992.43
2018-03-16T12:27:53.631Z,992.48
2018-03-16T12:28:53.603Z,992.44
2018-03-16T12:29:53.578Z,992.43
2018-03-16T12:30:53.561Z,992.41